sensor_id;sensor_type;location;lat;lon;timestamp;pressure;altitude;pressure_sealevel;temperature;humidity
13015;BME280;6573;57.696;11.950;2023-08-17T00:02:05;102120.72;;;20.69;100.00
13015;BME280;6573;57.696;11.950;2023-08-17T00:04:34;102129.69;;;20.64;100.00
13015;BME280;6573;57.696;11.950;2023-08-17T00:07:02;102120.22;;;20.51;100.00
13015;BME280;6573;57.696;11.950;2023-08-17T00:09:32;102134.19;;;20.64;100.00
13015;BME280;6573;57.696;11.950;2023-08-17T00:12:01;102131.41;;;20.69;100.00
13015;BME280;6573;57.696;11.950;2023-08-17T00:14:30;102127.66;;;20.76;100.00
13015;BME280;6573;57.696;11.950;2023-08-17T00:17:00;102129.41;;;20.77;100.00
13015;BME280;6573;57.696;11.950;2023-08-17T00:19:32;102120.25;;;20.87;100.00
13015;BME280;6573;57.696;11.950;2023-08-17T00:22:00;102116.53;;;20.94;100.00
13015;BME280;6573;57.696;11.950;2023-08-17T00:24:29;102106.78;;;20.91;100.00
13015;BME280;6573;57.696;11.950;2023-08-17T00:26:58;102112.97;;;20.92;100.00
13015;BME280;6573;57.696;11.950;2023-08-17T00:29:26;102111.25;;;20.91;100.00
13015;BME280;6573;57.696;11.950;2023-08-17T00:31:55;102116.03;;;20.77;100.00
13015;BME280;6573;57.696;11.950;2023-08-17T00:34:23;102106.56;;;20.63;100.00
13015;BME280;6573;57.696;11.950;2023-08-17T00:36:51;102097.78;;;20.57;100.00
13015;BME280;6573;57.696;11.950;2023-08-17T00:39:20;102113.81;;;20.58;100.00
13015;BME280;6573;57.696;11.950;2023-08-17T00:41:48;102115.50;;;20.62;100.00
13015;BME280;6573;57.696;11.950;2023-08-17T00:44:18;102117.03;;;20.73;100.00
13015;BME280;6573;57.696;11.950;2023-08-17T00:46:46;102095.09;;;20.58;100.00
13015;BME280;6573;57.696;11.950;2023-08-17T00:49:15;102122.81;;;20.54;100.00
13015;BME280;6573;57.696;11.950;2023-08-17T00:51:43;102113.34;;;20.40;100.00
13015;BME280;6573;57.696;11.950;2023-08-17T00:54:12;102115.25;;;20.35;100.00
13015;BME280;6573;57.696;11.950;2023-08-17T00:56:41;102116.34;;;20.26;100.00
13015;BME280;6573;57.696;11.950;2023-08-17T00:59:09;102122.63;;;20.22;100.00
13015;BME280;6573;57.696;11.950;2023-08-17T01:01:39;102118.19;;;20.21;100.00
13015;BME280;6573;57.696;11.950;2023-08-17T01:04:07;102120.09;;;20.16;100.00
13015;BME280;6573;57.696;11.950;2023-08-17T01:06:36;102121.94;;;20.14;100.00
13015;BME280;6573;57.696;11.950;2023-08-17T01:09:05;102123.72;;;20.12;100.00
13015;BME280;6573;57.696;11.950;2023-08-17T01:11:37;102120.16;;;20.13;100.00
13015;BME280;6573;57.696;11.950;2023-08-17T01:14:14;102121.94;;;20.14;100.00
13015;BME280;6573;57.696;11.950;2023-08-17T01:17:03;102117.22;;;20.27;100.00
13015;BME280;6573;57.696;11.950;2023-08-17T01:19:35;102125.28;;;20.22;100.00
13015;BME280;6573;57.696;11.950;2023-08-17T01:22:05;102127.31;;;20.11;100.00
13015;BME280;6573;57.696;11.950;2023-08-17T01:24:35;102141.91;;;19.95;100.00
13015;BME280;6573;57.696;11.950;2023-08-17T01:27:04;102132.47;;;19.77;100.00
13015;BME280;6573;57.696;11.950;2023-08-17T01:29:32;102140.56;;;19.73;100.00
13015;BME280;6573;57.696;11.950;2023-08-17T01:32:09;102143.97;;;19.81;100.00
13015;BME280;6573;57.696;11.950;2023-08-17T01:34:44;102157.22;;;19.85;100.00
13015;BME280;6573;57.696;11.950;2023-08-17T01:37:18;102160.66;;;19.93;100.00
13015;BME280;6573;57.696;11.950;2023-08-17T01:39:51;102163.22;;;19.98;100.00
13015;BME280;6573;57.696;11.950;2023-08-17T01:42:21;102170.50;;;19.90;100.00
13015;BME280;6573;57.696;11.950;2023-08-17T01:44:50;102152.72;;;19.89;100.00
13015;BME280;6573;57.696;11.950;2023-08-17T01:47:20;102175.00;;;19.88;100.00
13015;BME280;6573;57.696;11.950;2023-08-17T01:49:50;102157.28;;;19.84;100.00
13015;BME280;6573;57.696;11.950;2023-08-17T01:52:18;102175.00;;;19.88;100.00
13015;BME280;6573;57.696;11.950;2023-08-17T01:54:47;102184.88;;;19.83;100.00
13015;BME280;6573;57.696;11.950;2023-08-17T01:57:16;102183.06;;;19.85;100.00
13015;BME280;6573;57.696;11.950;2023-08-17T01:59:44;102190.19;;;19.86;100.00
13015;BME280;6573;57.696;11.950;2023-08-17T02:02:12;102186.72;;;19.81;100.00
13015;BME280;6573;57.696;11.950;2023-08-17T02:04:41;102190.19;;;19.86;100.00
13015;BME280;6573;57.696;11.950;2023-08-17T02:07:10;102174.09;;;19.89;100.00
13015;BME280;6573;57.696;11.950;2023-08-17T02:09:38;102177.56;;;19.94;100.00
13015;BME280;6573;57.696;11.950;2023-08-17T02:12:07;102158.00;;;19.92;100.00
13015;BME280;6573;57.696;11.950;2023-08-17T02:14:36;102159.81;;;19.90;100.00
13015;BME280;6573;57.696;11.950;2023-08-17T02:17:04;102168.63;;;19.95;100.00
13015;BME280;6573;57.696;11.950;2023-08-17T02:19:33;102176.81;;;19.86;100.00
13015;BME280;6573;57.696;11.950;2023-08-17T02:22:02;102179.69;;;19.77;100.00
13015;BME280;6573;57.696;11.950;2023-08-17T02:24:32;102176.03;;;19.81;100.00
13015;BME280;6573;57.696;11.950;2023-08-17T02:27:01;102176.06;;;19.78;100.00
13015;BME280;6573;57.696;11.950;2023-08-17T02:29:30;102178.69;;;19.81;100.00
13015;BME280;6573;57.696;11.950;2023-08-17T02:31:59;102179.59;;;19.80;100.00
13015;BME280;6573;57.696;11.950;2023-08-17T02:34:27;102195.41;;;19.92;100.00
13015;BME280;6573;57.696;11.950;2023-08-17T02:36:55;102186.53;;;19.90;100.00
13015;BME280;6573;57.696;11.950;2023-08-17T02:39:23;102198.94;;;19.94;100.00
13015;BME280;6573;57.696;11.950;2023-08-17T02:41:52;102200.75;;;19.92;100.00
13015;BME280;6573;57.696;11.950;2023-08-17T02:44:20;102197.34;;;19.84;100.00
13015;BME280;6573;57.696;11.950;2023-08-17T02:46:50;102191.16;;;19.80;100.00
13015;BME280;6573;57.696;11.950;2023-08-17T02:49:18;102186.66;;;19.84;100.00
13015;BME280;6573;57.696;11.950;2023-08-17T02:51:47;102190.06;;;19.92;100.00
13015;BME280;6573;57.696;11.950;2023-08-17T02:54:15;102195.31;;;19.95;100.00
13015;BME280;6573;57.696;11.950;2023-08-17T02:56:43;102199.88;;;19.90;100.00
13015;BME280;6573;57.696;11.950;2023-08-17T02:59:11;102188.78;;;19.67;100.00
13015;BME280;6573;57.696;11.950;2023-08-17T03:01:39;102193.81;;;19.82;100.00
13015;BME280;6573;57.696;11.950;2023-08-17T03:04:09;102188.41;;;19.85;100.00
13015;BME280;6573;57.696;11.950;2023-08-17T03:06:37;102182.25;;;19.80;100.00
13015;BME280;6573;57.696;11.950;2023-08-17T03:09:05;102193.75;;;19.85;100.00
13015;BME280;6573;57.696;11.950;2023-08-17T03:11:34;102191.97;;;19.85;100.00
13015;BME280;6573;57.696;11.950;2023-08-17T03:14:02;102195.56;;;19.83;100.00
13015;BME280;6573;57.696;11.950;2023-08-17T03:16:30;102190.41;;;19.74;100.00
13015;BME280;6573;57.696;11.950;2023-08-17T03:18:59;102187.97;;;19.62;100.00
13015;BME280;6573;57.696;11.950;2023-08-17T03:21:28;102180.84;;;19.61;100.00
13015;BME280;6573;57.696;11.950;2023-08-17T03:23:57;102171.19;;;19.54;100.00
13015;BME280;6573;57.696;11.950;2023-08-17T03:26:25;102176.53;;;19.54;100.00
13015;BME280;6573;57.696;11.950;2023-08-17T03:28:54;102187.03;;;19.63;100.00
13015;BME280;6573;57.696;11.950;2023-08-17T03:31:22;102180.25;;;19.47;100.00
13015;BME280;6573;57.696;11.950;2023-08-17T03:33:50;102171.44;;;19.42;100.00
13015;BME280;6573;57.696;11.950;2023-08-17T03:36:18;102175.09;;;19.34;100.00
13015;BME280;6573;57.696;11.950;2023-08-17T03:38:48;102182.16;;;19.38;100.00
13015;BME280;6573;57.696;11.950;2023-08-17T03:41:16;102169.78;;;19.31;100.00
13015;BME280;6573;57.696;11.950;2023-08-17T03:43:44;102183.00;;;19.42;100.00
13015;BME280;6573;57.696;11.950;2023-08-17T03:46:12;102165.81;;;19.57;100.00
13015;BME280;6573;57.696;11.950;2023-08-17T03:48:40;102170.53;;;19.41;100.00
13015;BME280;6573;57.696;11.950;2023-08-17T03:51:09;102175.78;;;19.46;100.00
13015;BME280;6573;57.696;11.950;2023-08-17T03:53:37;102185.41;;;19.56;100.00
13015;BME280;6573;57.696;11.950;2023-08-17T03:56:06;102185.41;;;19.56;100.00
13015;BME280;6573;57.696;11.950;2023-08-17T03:58:35;102174.72;;;19.56;100.00
13015;BME280;6573;57.696;11.950;2023-08-17T04:01:03;102181.69;;;19.63;100.00
13015;BME280;6573;57.696;11.950;2023-08-17T04:03:33;102189.66;;;19.67;100.00
13015;BME280;6573;57.696;11.950;2023-08-17T04:06:04;102195.63;;;19.80;100.00
13015;BME280;6573;57.696;11.950;2023-08-17T04:08:33;102198.59;;;19.63;100.00
13015;BME280;6573;57.696;11.950;2023-08-17T04:11:02;102204.13;;;19.53;100.00
13015;BME280;6573;57.696;11.950;2023-08-17T04:13:34;102203.84;;;19.69;100.00
13015;BME280;6573;57.696;11.950;2023-08-17T04:16:02;102206.44;;;19.74;100.00
13015;BME280;6573;57.696;11.950;2023-08-17T04:18:30;102213.47;;;19.78;100.00
13015;BME280;6573;57.696;11.950;2023-08-17T04:20:58;102218.66;;;19.87;100.00
13015;BME280;6573;57.696;11.950;2023-08-17T04:23:27;102235.84;;;19.71;100.00
13015;BME280;6573;57.696;11.950;2023-08-17T04:25:55;102228.13;;;19.56;100.00
13015;BME280;6573;57.696;11.950;2023-08-17T04:28:23;102222.09;;;19.45;100.00
13015;BME280;6573;57.696;11.950;2023-08-17T04:30:53;102227.44;;;19.43;100.00
13015;BME280;6573;57.696;11.950;2023-08-17T04:33:21;102228.38;;;19.41;100.00
13015;BME280;6573;57.696;11.950;2023-08-17T04:35:49;102236.25;;;19.50;100.00
13015;BME280;6573;57.696;11.950;2023-08-17T04:38:18;102239.09;;;19.36;100.00
13015;BME280;6573;57.696;11.950;2023-08-17T04:40:46;102233.63;;;19.47;100.00
13015;BME280;6573;57.696;11.950;2023-08-17T04:43:14;102240.88;;;19.38;100.00
13015;BME280;6573;57.696;11.950;2023-08-17T04:45:42;102231.06;;;19.39;100.00
13015;BME280;6573;57.696;11.950;2023-08-17T04:48:15;102245.94;;;19.54;100.00
13015;BME280;6573;57.696;11.950;2023-08-17T04:50:44;102240.63;;;19.54;100.00
13015;BME280;6573;57.696;11.950;2023-08-17T04:53:12;102244.25;;;19.50;100.00
13015;BME280;6573;57.696;11.950;2023-08-17T04:55:41;102237.22;;;19.43;100.00
13015;BME280;6573;57.696;11.950;2023-08-17T04:58:09;102244.38;;;19.41;100.00
13015;BME280;6573;57.696;11.950;2023-08-17T05:00:37;102244.19;;;19.53;100.00
13015;BME280;6573;57.696;11.950;2023-08-17T05:03:05;102238.44;;;19.77;100.00
13015;BME280;6573;57.696;11.950;2023-08-17T05:05:47;102246.97;;;19.97;100.00
13015;BME280;6573;57.696;11.950;2023-08-17T05:08:15;102256.09;;;19.84;100.00
13015;BME280;6573;57.696;11.950;2023-08-17T05:10:44;102257.13;;;19.77;100.00
13015;BME280;6573;57.696;11.950;2023-08-17T05:13:12;102261.50;;;19.81;100.00
13015;BME280;6573;57.696;11.950;2023-08-17T05:15:40;102262.38;;;19.81;100.00
13015;BME280;6573;57.696;11.950;2023-08-17T05:18:08;102269.19;;;19.97;100.00
13015;BME280;6573;57.696;11.950;2023-08-17T05:20:36;102267.25;;;20.06;100.00
13015;BME280;6573;57.696;11.950;2023-08-17T05:23:06;102266.59;;;19.93;100.00
13015;BME280;6573;57.696;11.950;2023-08-17T05:25:34;102254.31;;;19.83;100.00
13015;BME280;6573;57.696;11.950;2023-08-17T05:28:05;102267.41;;;19.98;100.00
13015;BME280;6573;57.696;11.950;2023-08-17T05:30:33;102269.84;;;20.10;100.00
13015;BME280;6573;57.696;11.950;2023-08-17T05:33:02;102268.19;;;20.03;100.00
13015;BME280;6573;57.696;11.950;2023-08-17T05:35:30;102289.53;;;20.06;100.00
13015;BME280;6573;57.696;11.950;2023-08-17T05:37:58;102270.63;;;20.15;100.00
13015;BME280;6573;57.696;11.950;2023-08-17T05:40:29;102283.94;;;20.18;100.00
13015;BME280;6573;57.696;11.950;2023-08-17T05:42:57;102292.59;;;20.32;100.00
13015;BME280;6573;57.696;11.950;2023-08-17T05:45:25;102286.06;;;20.47;100.00
13015;BME280;6573;57.696;11.950;2023-08-17T05:47:53;102288.66;;;20.51;100.00
13015;BME280;6573;57.696;11.950;2023-08-17T05:50:22;102290.25;;;20.61;100.00
13015;BME280;6573;57.696;11.950;2023-08-17T05:52:50;102291.34;;;20.51;100.00
13015;BME280;6573;57.696;11.950;2023-08-17T05:55:18;102283.50;;;20.42;100.00
13015;BME280;6573;57.696;11.950;2023-08-17T05:57:48;102290.25;;;20.61;100.00
13015;BME280;6573;57.696;11.950;2023-08-17T06:00:16;102296.44;;;20.62;100.00
13015;BME280;6573;57.696;11.950;2023-08-17T06:02:44;102292.84;;;20.64;100.00
13015;BME280;6573;57.696;11.950;2023-08-17T06:05:17;102289.97;;;20.74;100.00
13015;BME280;6573;57.696;11.950;2023-08-17T06:07:45;102295.25;;;20.77;100.00
13015;BME280;6573;57.696;11.950;2023-08-17T06:10:13;102295.06;;;20.86;100.00
13015;BME280;6573;57.696;11.950;2023-08-17T06:12:41;102286.09;;;20.87;100.00
13015;BME280;6573;57.696;11.950;2023-08-17T06:15:13;102299.03;;;20.66;100.00
13015;BME280;6573;57.696;11.950;2023-08-17T06:17:41;102301.69;;;20.66;100.00
13015;BME280;6573;57.696;11.950;2023-08-17T06:20:11;102300.81;;;20.67;100.00
13015;BME280;6573;57.696;11.950;2023-08-17T06:22:40;102308.59;;;20.78;100.00
13015;BME280;6573;57.696;11.950;2023-08-17T06:25:08;102302.16;;;20.87;100.00
13015;BME280;6573;57.696;11.950;2023-08-17T06:27:37;102312.81;;;20.90;100.00
13015;BME280;6573;57.696;11.950;2023-08-17T06:30:06;102320.19;;;20.79;100.00
13015;BME280;6573;57.696;11.950;2023-08-17T06:32:36;102316.47;;;20.86;100.00
13015;BME280;6573;57.696;11.950;2023-08-17T06:35:05;102321.41;;;21.04;100.00
13015;BME280;6573;57.696;11.950;2023-08-17T06:37:34;102313.22;;;21.13;100.00
13015;BME280;6573;57.696;11.950;2023-08-17T06:40:06;102320.06;;;21.26;100.00
13015;BME280;6573;57.696;11.950;2023-08-17T06:42:36;102320.19;;;21.58;100.00
13015;BME280;6573;57.696;11.950;2023-08-17T06:45:05;102327.28;;;21.59;100.00
13015;BME280;6573;57.696;11.950;2023-08-17T06:47:34;102328.28;;;21.54;100.00
13015;BME280;6573;57.696;11.950;2023-08-17T06:50:04;102330.41;;;21.76;100.00
13015;BME280;6573;57.696;11.950;2023-08-17T06:52:32;102342.69;;;21.86;100.00
13015;BME280;6573;57.696;11.950;2023-08-17T06:55:01;102342.63;;;21.89;100.00
13015;BME280;6573;57.696;11.950;2023-08-17T06:57:29;102351.38;;;21.98;100.00
13015;BME280;6573;57.696;11.950;2023-08-17T06:59:57;102349.34;;;22.06;100.00
13015;BME280;6573;57.696;11.950;2023-08-17T07:02:26;102352.97;;;22.05;100.00
13015;BME280;6573;57.696;11.950;2023-08-17T07:05:14;102358.63;;;21.92;100.00
13015;BME280;6573;57.696;11.950;2023-08-17T07:07:42;102356.88;;;21.91;100.00
13015;BME280;6573;57.696;11.950;2023-08-17T07:10:11;102358.63;;;21.92;100.00
13015;BME280;6573;57.696;11.950;2023-08-17T07:12:39;102370.78;;;22.06;100.00
13015;BME280;6573;57.696;11.950;2023-08-17T07:15:09;102368.72;;;22.17;100.00
13015;BME280;6573;57.696;11.950;2023-08-17T07:17:38;102368.78;;;22.14;100.00
13015;BME280;6573;57.696;11.950;2023-08-17T07:20:07;102368.66;;;22.20;100.00
13015;BME280;6573;57.696;11.950;2023-08-17T07:22:40;102368.41;;;22.29;100.00
13015;BME280;6573;57.696;11.950;2023-08-17T07:25:09;102357.19;;;22.13;100.00
13015;BME280;6573;57.696;11.950;2023-08-17T07:27:37;102350.88;;;22.16;100.00
13015;BME280;6573;57.696;11.950;2023-08-17T07:30:06;102362.06;;;22.31;100.00
13015;BME280;6573;57.696;11.950;2023-08-17T07:32:34;102364.69;;;22.33;100.00
13015;BME280;6573;57.696;11.950;2023-08-17T07:35:06;102366.53;;;22.31;100.00
13015;BME280;6573;57.696;11.950;2023-08-17T07:37:34;102371.97;;;22.28;100.00
13015;BME280;6573;57.696;11.950;2023-08-17T07:40:04;102372.50;;;22.10;100.00
13015;BME280;6573;57.696;11.950;2023-08-17T07:42:33;102375.38;;;22.02;100.00
13015;BME280;6573;57.696;11.950;2023-08-17T07:45:02;102376.25;;;22.03;100.00
13015;BME280;6573;57.696;11.950;2023-08-17T07:47:33;102379.53;;;22.14;100.00
13015;BME280;6573;57.696;11.950;2023-08-17T07:50:06;102380.34;;;22.17;100.00
13015;BME280;6573;57.696;11.950;2023-08-17T07:52:34;102386.06;;;22.37;100.00
13015;BME280;6573;57.696;11.950;2023-08-17T07:55:04;102380.63;;;22.39;100.00
13015;BME280;6573;57.696;11.950;2023-08-17T07:57:32;102381.44;;;22.42;100.00
13015;BME280;6573;57.696;11.950;2023-08-17T08:00:00;102383.13;;;22.13;100.00
13015;BME280;6573;57.696;11.950;2023-08-17T08:02:29;102382.94;;;21.83;100.00
13015;BME280;6573;57.696;11.950;2023-08-17T08:04:57;102385.13;;;22.05;100.00
13015;BME280;6573;57.696;11.950;2023-08-17T08:07:25;102385.78;;;21.77;100.00
13015;BME280;6573;57.696;11.950;2023-08-17T08:09:54;102387.97;;;21.60;100.00
13015;BME280;6573;57.696;11.950;2023-08-17T08:12:23;102394.25;;;21.98;100.00
13015;BME280;6573;57.696;11.950;2023-08-17T08:14:52;102388.56;;;22.10;100.00
13015;BME280;6573;57.696;11.950;2023-08-17T08:17:20;102391.38;;;22.39;100.00
13015;BME280;6573;57.696;11.950;2023-08-17T08:19:48;102389.59;;;22.38;100.00
13015;BME280;6573;57.696;11.950;2023-08-17T08:22:17;102386.69;;;22.45;100.00
13015;BME280;6573;57.696;11.950;2023-08-17T08:24:46;102403.22;;;22.64;100.00
13015;BME280;6573;57.696;11.950;2023-08-17T08:27:14;102392.19;;;22.42;100.00
13015;BME280;6573;57.696;11.950;2023-08-17T08:29:44;102403.88;;;22.40;100.00
13015;BME280;6573;57.696;11.950;2023-08-17T08:32:12;102403.28;;;22.61;100.00
13015;BME280;6573;57.696;11.950;2023-08-17T08:34:40;102400.56;;;22.63;100.00
13015;BME280;6573;57.696;11.950;2023-08-17T08:37:08;102407.47;;;22.39;100.00
13015;BME280;6573;57.696;11.950;2023-08-17T08:39:48;102390.66;;;22.66;100.00
13015;BME280;6573;57.696;11.950;2023-08-17T08:42:17;102413.28;;;22.88;100.00
13015;BME280;6573;57.696;11.950;2023-08-17T08:44:48;102411.75;;;22.78;100.00
13015;BME280;6573;57.696;11.950;2023-08-17T08:47:17;102411.34;;;22.93;100.00
13015;BME280;6573;57.696;11.950;2023-08-17T08:49:50;102409.22;;;23.04;100.00
13015;BME280;6573;57.696;11.950;2023-08-17T08:52:23;102417.09;;;23.10;100.00
13015;BME280;6573;57.696;11.950;2023-08-17T08:54:57;102411.84;;;22.75;100.00
13015;BME280;6573;57.696;11.950;2023-08-17T08:57:27;102416.00;;;22.53;100.00
13015;BME280;6573;57.696;11.950;2023-08-17T08:59:59;102417.31;;;22.72;100.00
13015;BME280;6573;57.696;11.950;2023-08-17T09:02:27;102403.94;;;22.71;100.00
13015;BME280;6573;57.696;11.950;2023-08-17T09:04:56;102414.69;;;23.01;100.00
13015;BME280;6573;57.696;11.950;2023-08-17T09:07:26;102425.78;;;22.89;100.00
13015;BME280;6573;57.696;11.950;2023-08-17T09:09:57;102418.69;;;22.87;100.00
13015;BME280;6573;57.696;11.950;2023-08-17T09:12:25;102407.41;;;22.74;100.00
13015;BME280;6573;57.696;11.950;2023-08-17T09:15:08;102410.94;;;22.76;100.00
13015;BME280;6573;57.696;11.950;2023-08-17T09:17:37;102415.69;;;22.65;100.00
13015;BME280;6573;57.696;11.950;2023-08-17T09:20:06;102412.19;;;22.63;100.00
13015;BME280;6573;57.696;11.950;2023-08-17T09:22:40;102415.00;;;22.25;100.00
13015;BME280;6573;57.696;11.950;2023-08-17T09:25:09;102421.25;;;22.24;100.00
13015;BME280;6573;57.696;11.950;2023-08-17T09:27:38;102417.78;;;22.54;100.00
13015;BME280;6573;57.696;11.950;2023-08-17T09:30:11;102422.41;;;22.81;100.00
13015;BME280;6573;57.696;11.950;2023-08-17T09:32:47;102426.25;;;23.03;100.00
13015;BME280;6573;57.696;11.950;2023-08-17T09:35:16;102424.38;;;23.07;100.00
13015;BME280;6573;57.696;11.950;2023-08-17T09:37:45;102421.28;;;23.20;100.00
13015;BME280;6573;57.696;11.950;2023-08-17T09:40:15;102427.75;;;23.13;100.00
13015;BME280;6573;57.696;11.950;2023-08-17T09:42:48;102420.44;;;23.18;100.00
13015;BME280;6573;57.696;11.950;2023-08-17T09:45:19;102431.41;;;23.11;100.00
13015;BME280;6573;57.696;11.950;2023-08-17T09:47:47;102428.78;;;23.09;100.00
13015;BME280;6573;57.696;11.950;2023-08-17T09:50:15;102431.72;;;23.00;100.00
13015;BME280;6573;57.696;11.950;2023-08-17T09:52:44;102423.50;;;23.06;100.00
13015;BME280;6573;57.696;11.950;2023-08-17T09:55:17;102422.44;;;23.12;100.00
13015;BME280;6573;57.696;11.950;2023-08-17T09:57:46;102419.84;;;23.07;100.00
13015;BME280;6573;57.696;11.950;2023-08-17T10:00:17;102428.94;;;23.03;100.00
13015;BME280;6573;57.696;11.950;2023-08-17T10:02:49;102428.25;;;22.97;100.00
13015;BME280;6573;57.696;11.950;2023-08-17T10:05:19;102422.06;;;22.93;100.00
13015;BME280;6573;57.696;11.950;2023-08-17T10:07:54;102422.06;;;22.93;100.00
13015;BME280;6573;57.696;11.950;2023-08-17T10:10:25;102423.56;;;23.03;100.00
13015;BME280;6573;57.696;11.950;2023-08-17T10:13:00;102430.28;;;23.19;100.00
13015;BME280;6573;57.696;11.950;2023-08-17T10:15:34;102432.00;;;23.20;100.00
13015;BME280;6573;57.696;11.950;2023-08-17T10:18:13;102432.09;;;23.17;100.00
13015;BME280;6573;57.696;11.950;2023-08-17T10:20:55;102425.94;;;23.14;100.00
13015;BME280;6573;57.696;11.950;2023-08-17T10:23:30;102421.47;;;23.14;100.00
13015;BME280;6573;57.696;11.950;2023-08-17T10:26:00;102424.19;;;23.44;100.00
13015;BME280;6573;57.696;11.950;2023-08-17T10:28:31;102424.47;;;23.33;100.00
13015;BME280;6573;57.696;11.950;2023-08-17T10:31:00;102424.19;;;23.44;100.00
13015;BME280;6573;57.696;11.950;2023-08-17T10:33:39;102423.13;;;23.49;100.00
13015;BME280;6573;57.696;11.950;2023-08-17T10:36:12;102427.16;;;23.64;100.00
13015;BME280;6573;57.696;11.950;2023-08-17T10:38:41;102420.47;;;23.48;100.00
13015;BME280;6573;57.696;11.950;2023-08-17T10:41:11;102421.59;;;23.41;100.00
13015;BME280;6573;57.696;11.950;2023-08-17T10:44:00;102418.03;;;23.09;100.00
13015;BME280;6573;57.696;11.950;2023-08-17T10:46:33;102406.78;;;23.55;100.00
13015;BME280;6573;57.696;11.950;2023-08-17T10:49:07;102417.38;;;23.31;100.00
13015;BME280;6573;57.696;11.950;2023-08-17T10:52:01;102413.78;;;22.70;100.00
13015;BME280;6573;57.696;11.950;2023-08-17T10:54:37;102418.22;;;22.71;100.00
13015;BME280;6573;57.696;11.950;2023-08-17T10:57:30;102414.94;;;22.92;100.00
13015;BME280;6573;57.696;11.950;2023-08-17T11:00:13;102428.25;;;22.97;100.00
13015;BME280;6573;57.696;11.950;2023-08-17T11:02:45;102433.63;;;22.97;100.00
13015;BME280;6573;57.696;11.950;2023-08-17T11:05:34;102425.44;;;23.31;100.00
13015;BME280;6573;57.696;11.950;2023-08-17T11:08:03;102430.63;;;23.38;100.00
13015;BME280;6573;57.696;11.950;2023-08-17T11:10:32;102430.66;;;23.35;100.00
13015;BME280;6573;57.696;11.950;2023-08-17T11:13:01;102434.56;;;23.25;100.00
13015;BME280;6573;57.696;11.950;2023-08-17T11:15:37;102428.97;;;23.62;100.00
13015;BME280;6573;57.696;11.950;2023-08-17T11:18:09;102439.47;;;23.97;100.00
13015;BME280;6573;57.696;11.950;2023-08-17T11:20:41;102442.25;;;23.94;100.00
13015;BME280;6573;57.696;11.950;2023-08-17T11:23:10;102429.78;;;23.93;100.00
13015;BME280;6573;57.696;11.950;2023-08-17T11:25:39;102444.47;;;24.09;100.00
13015;BME280;6573;57.696;11.950;2023-08-17T11:28:07;102440.63;;;24.18;100.00
13015;BME280;6573;57.696;11.950;2023-08-17T11:30:36;102440.22;;;24.30;100.00
13015;BME280;6573;57.696;11.950;2023-08-17T11:33:06;102446.25;;;24.36;100.00
13015;BME280;6573;57.696;11.950;2023-08-17T11:35:35;102444.59;;;24.32;100.00
13015;BME280;6573;57.696;11.950;2023-08-17T11:38:05;102446.78;;;24.48;100.00
13015;BME280;6573;57.696;11.950;2023-08-17T11:40:35;102445.94;;;24.45;100.00
13015;BME280;6573;57.696;11.950;2023-08-17T11:43:04;102443.38;;;24.16;100.00
13015;BME280;6573;57.696;11.950;2023-08-17T11:45:32;102447.25;;;23.51;100.00
13015;BME280;6573;57.696;11.950;2023-08-17T11:48:01;102436.50;;;23.51;100.00
13015;BME280;6573;57.696;11.950;2023-08-17T11:50:30;102445.22;;;23.87;100.00
13015;BME280;6573;57.696;11.950;2023-08-17T11:52:59;102436.41;;;24.09;100.00
13015;BME280;6573;57.696;11.950;2023-08-17T11:55:29;102445.00;;;23.93;100.00
13015;BME280;6573;57.696;11.950;2023-08-17T11:57:57;102444.13;;;23.92;100.00
13015;BME280;6573;57.696;11.950;2023-08-17T12:00:25;102451.44;;;24.16;100.00
13015;BME280;6573;57.696;11.950;2023-08-17T12:02:54;102435.72;;;24.30;100.00
13015;BME280;6573;57.696;11.950;2023-08-17T12:05:24;102436.50;;;24.06;100.00
13015;BME280;6573;57.696;11.950;2023-08-17T12:07:54;102443.25;;;24.19;100.00
13015;BME280;6573;57.696;11.950;2023-08-17T12:10:23;102446.16;;;24.39;100.00
13015;BME280;6573;57.696;11.950;2023-08-17T12:12:52;102450.28;;;24.50;100.00
13015;BME280;6573;57.696;11.950;2023-08-17T12:15:21;102457.41;;;23.97;100.00
13015;BME280;6573;57.696;11.950;2023-08-17T12:17:50;102448.16;;;23.79;100.00
13015;BME280;6573;57.696;11.950;2023-08-17T12:20:20;102453.19;;;24.17;100.00
13015;BME280;6573;57.696;11.950;2023-08-17T12:22:48;102449.63;;;24.17;100.00
13015;BME280;6573;57.696;11.950;2023-08-17T12:25:20;102450.91;;;24.31;100.00
13015;BME280;6573;57.696;11.950;2023-08-17T12:27:49;102451.53;;;24.39;100.00
13015;BME280;6573;57.696;11.950;2023-08-17T12:30:27;102449.13;;;24.57;100.00
13015;BME280;6573;57.696;11.950;2023-08-17T12:32:59;102446.88;;;24.18;100.00
13015;BME280;6573;57.696;11.950;2023-08-17T12:35:27;102439.97;;;24.11;100.00
13015;BME280;6573;57.696;11.950;2023-08-17T12:37:55;102439.22;;;24.32;100.00
13015;BME280;6573;57.696;11.950;2023-08-17T12:40:24;102446.16;;;24.39;100.00
13015;BME280;6573;57.696;11.950;2023-08-17T12:42:52;102438.38;;;24.57;100.00
13015;BME280;6573;57.696;11.950;2023-08-17T12:45:21;102442.09;;;24.53;100.00
13015;BME280;6573;57.696;11.950;2023-08-17T12:47:55;102445.53;;;24.58;100.00
13015;BME280;6573;57.696;11.950;2023-08-17T12:50:24;102436.63;;;24.56;100.00
13015;BME280;6573;57.696;11.950;2023-08-17T12:52:52;102446.66;;;24.24;100.00
13015;BME280;6573;57.696;11.950;2023-08-17T12:55:22;102438.66;;;23.95;100.00